sensor_id;sensor_type;location;lat;lon;timestamp;P1;durP1;ratioP1;P2;durP2;ratioP2
30571;SDS011;17348;50.948;10.696;2023-11-18T00:01:55;7.33;;;2.20;;
30571;SDS011;17348;50.948;10.696;2023-11-18T00:04:58;4.20;;;1.77;;
30571;SDS011;17348;50.948;10.696;2023-11-18T00:08:00;3.03;;;1.47;;
30571;SDS011;17348;50.948;10.696;2023-11-18T00:11:05;5.90;;;2.10;;
30571;SDS011;17348;50.948;10.696;2023-11-18T00:14:07;6.97;;;2.27;;
30571;SDS011;17348;50.948;10.696;2023-11-18T00:17:10;3.03;;;1.67;;
30571;SDS011;17348;50.948;10.696;2023-11-18T00:20:13;4.43;;;2.20;;
30571;SDS011;17348;50.948;10.696;2023-11-18T00:23:16;5.63;;;2.07;;
30571;SDS011;17348;50.948;10.696;2023-11-18T00:26:20;2.80;;;1.63;;
30571;SDS011;17348;50.948;10.696;2023-11-18T00:29:22;5.03;;;2.20;;
30571;SDS011;17348;50.948;10.696;2023-11-18T00:32:25;4.60;;;1.97;;
30571;SDS011;17348;50.948;10.696;2023-11-18T00:35:28;5.17;;;2.27;;
30571;SDS011;17348;50.948;10.696;2023-11-18T00:38:32;4.10;;;2.27;;
30571;SDS011;17348;50.948;10.696;2023-11-18T00:41:36;4.97;;;2.30;;
30571;SDS011;17348;50.948;10.696;2023-11-18T00:44:38;6.23;;;2.50;;
30571;SDS011;17348;50.948;10.696;2023-11-18T00:47:42;9.40;;;2.47;;
30571;SDS011;17348;50.948;10.696;2023-11-18T00:50:44;6.33;;;1.90;;
30571;SDS011;17348;50.948;10.696;2023-11-18T00:53:47;4.43;;;2.17;;
30571;SDS011;17348;50.948;10.696;2023-11-18T00:56:51;3.83;;;2.40;;
30571;SDS011;17348;50.948;10.696;2023-11-18T00:59:53;4.93;;;2.47;;
30571;SDS011;17348;50.948;10.696;2023-11-18T01:02:56;2.43;;;1.70;;
30571;SDS011;17348;50.948;10.696;2023-11-18T01:05:58;3.40;;;1.80;;
30571;SDS011;17348;50.948;10.696;2023-11-18T01:09:01;4.50;;;2.37;;
30571;SDS011;17348;50.948;10.696;2023-11-18T01:12:06;3.87;;;2.27;;
30571;SDS011;17348;50.948;10.696;2023-11-18T01:15:10;5.47;;;2.20;;
30571;SDS011;17348;50.948;10.696;2023-11-18T01:18:12;4.20;;;1.93;;
30571;SDS011;17348;50.948;10.696;2023-11-18T01:21:15;3.70;;;2.03;;
30571;SDS011;17348;50.948;10.696;2023-11-18T01:24:18;5.67;;;2.33;;
30571;SDS011;17348;50.948;10.696;2023-11-18T01:27:21;8.37;;;3.00;;
30571;SDS011;17348;50.948;10.696;2023-11-18T01:30:24;4.93;;;2.47;;
30571;SDS011;17348;50.948;10.696;2023-11-18T01:33:27;6.40;;;2.47;;
30571;SDS011;17348;50.948;10.696;2023-11-18T01:36:29;8.13;;;2.50;;
30571;SDS011;17348;50.948;10.696;2023-11-18T01:39:32;5.53;;;2.67;;
30571;SDS011;17348;50.948;10.696;2023-11-18T01:42:35;4.13;;;2.07;;
30571;SDS011;17348;50.948;10.696;2023-11-18T01:45:38;7.17;;;2.67;;
30571;SDS011;17348;50.948;10.696;2023-11-18T01:48:41;6.53;;;2.30;;
30571;SDS011;17348;50.948;10.696;2023-11-18T01:51:44;4.23;;;2.50;;
30571;SDS011;17348;50.948;10.696;2023-11-18T01:54:47;4.20;;;1.77;;
30571;SDS011;17348;50.948;10.696;2023-11-18T01:57:51;7.57;;;2.00;;
30571;SDS011;17348;50.948;10.696;2023-11-18T02:00:54;2.60;;;2.27;;
30571;SDS011;17348;50.948;10.696;2023-11-18T02:03:57;7.10;;;2.03;;
30571;SDS011;17348;50.948;10.696;2023-11-18T02:07:00;14.47;;;2.93;;
30571;SDS011;17348;50.948;10.696;2023-11-18T02:10:09;4.57;;;2.30;;
30571;SDS011;17348;50.948;10.696;2023-11-18T02:13:16;6.33;;;2.50;;
30571;SDS011;17348;50.948;10.696;2023-11-18T02:16:25;6.07;;;2.37;;
30571;SDS011;17348;50.948;10.696;2023-11-18T02:19:29;12.47;;;2.87;;
30571;SDS011;17348;50.948;10.696;2023-11-18T02:22:32;7.37;;;2.63;;
30571;SDS011;17348;50.948;10.696;2023-11-18T02:28:46;7.73;;;3.00;;
30571;SDS011;17348;50.948;10.696;2023-11-18T02:31:50;4.37;;;2.40;;
30571;SDS011;17348;50.948;10.696;2023-11-18T02:34:56;8.77;;;2.67;;
30571;SDS011;17348;50.948;10.696;2023-11-18T02:38:05;5.50;;;2.50;;
30571;SDS011;17348;50.948;10.696;2023-11-18T02:41:12;7.03;;;2.73;;
30571;SDS011;17348;50.948;10.696;2023-11-18T02:44:19;4.53;;;2.40;;
30571;SDS011;17348;50.948;10.696;2023-11-18T02:47:23;5.57;;;2.63;;
30571;SDS011;17348;50.948;10.696;2023-11-18T02:50:26;5.20;;;2.97;;
30571;SDS011;17348;50.948;10.696;2023-11-18T02:53:29;9.43;;;2.80;;
30571;SDS011;17348;50.948;10.696;2023-11-18T02:56:35;8.10;;;2.97;;
30571;SDS011;17348;50.948;10.696;2023-11-18T02:59:37;6.67;;;3.23;;
30571;SDS011;17348;50.948;10.696;2023-11-18T03:02:39;6.27;;;3.13;;
30571;SDS011;17348;50.948;10.696;2023-11-18T03:05:42;10.00;;;3.07;;
30571;SDS011;17348;50.948;10.696;2023-11-18T03:08:44;6.90;;;2.97;;
30571;SDS011;17348;50.948;10.696;2023-11-18T03:11:48;14.97;;;3.03;;
30571;SDS011;17348;50.948;10.696;2023-11-18T03:14:51;5.37;;;3.10;;
30571;SDS011;17348;50.948;10.696;2023-11-18T03:17:54;10.27;;;3.60;;
30571;SDS011;17348;50.948;10.696;2023-11-18T03:20:56;5.93;;;3.10;;
30571;SDS011;17348;50.948;10.696;2023-11-18T03:24:00;7.73;;;3.03;;
30571;SDS011;17348;50.948;10.696;2023-11-18T03:27:04;6.87;;;2.93;;
30571;SDS011;17348;50.948;10.696;2023-11-18T03:30:09;6.40;;;3.40;;
30571;SDS011;17348;50.948;10.696;2023-11-18T03:33:12;6.27;;;3.67;;
30571;SDS011;17348;50.948;10.696;2023-11-18T03:36:14;10.13;;;3.50;;
30571;SDS011;17348;50.948;10.696;2023-11-18T03:39:18;11.50;;;4.10;;
30571;SDS011;17348;50.948;10.696;2023-11-18T03:42:23;6.30;;;3.63;;
30571;SDS011;17348;50.948;10.696;2023-11-18T03:45:25;8.77;;;3.00;;
30571;SDS011;17348;50.948;10.696;2023-11-18T03:48:27;13.10;;;4.10;;
30571;SDS011;17348;50.948;10.696;2023-11-18T03:51:30;5.97;;;3.50;;
30571;SDS011;17348;50.948;10.696;2023-11-18T03:54:33;11.07;;;3.77;;
30571;SDS011;17348;50.948;10.696;2023-11-18T03:57:36;9.13;;;4.07;;
30571;SDS011;17348;50.948;10.696;2023-11-18T04:00:39;9.97;;;4.20;;
30571;SDS011;17348;50.948;10.696;2023-11-18T04:03:41;10.13;;;3.93;;
30571;SDS011;17348;50.948;10.696;2023-11-18T04:06:43;11.90;;;4.17;;
30571;SDS011;17348;50.948;10.696;2023-11-18T04:09:47;7.53;;;3.77;;
30571;SDS011;17348;50.948;10.696;2023-11-18T04:12:50;7.83;;;3.93;;
30571;SDS011;17348;50.948;10.696;2023-11-18T04:15:53;12.50;;;4.67;;
30571;SDS011;17348;50.948;10.696;2023-11-18T04:18:55;11.83;;;4.13;;
30571;SDS011;17348;50.948;10.696;2023-11-18T04:21:57;7.53;;;4.00;;
30571;SDS011;17348;50.948;10.696;2023-11-18T04:25:01;12.77;;;4.23;;
30571;SDS011;17348;50.948;10.696;2023-11-18T04:28:05;7.97;;;3.90;;
30571;SDS011;17348;50.948;10.696;2023-11-18T04:31:07;8.53;;;4.07;;
30571;SDS011;17348;50.948;10.696;2023-11-18T04:34:09;9.87;;;3.83;;
30571;SDS011;17348;50.948;10.696;2023-11-18T04:37:11;10.77;;;5.07;;
30571;SDS011;17348;50.948;10.696;2023-11-18T04:40:14;7.10;;;3.17;;
30571;SDS011;17348;50.948;10.696;2023-11-18T04:43:18;7.57;;;3.93;;
30571;SDS011;17348;50.948;10.696;2023-11-18T04:46:20;5.87;;;3.60;;
30571;SDS011;17348;50.948;10.696;2023-11-18T04:49:22;7.33;;;4.47;;
30571;SDS011;17348;50.948;10.696;2023-11-18T04:52:25;8.17;;;4.40;;
30571;SDS011;17348;50.948;10.696;2023-11-18T04:55:27;9.70;;;4.03;;
30571;SDS011;17348;50.948;10.696;2023-11-18T04:58:31;9.33;;;4.33;;
30571;SDS011;17348;50.948;10.696;2023-11-18T05:01:33;8.97;;;4.57;;
30571;SDS011;17348;50.948;10.696;2023-11-18T05:04:37;11.03;;;4.37;;
30571;SDS011;17348;50.948;10.696;2023-11-18T05:07:41;6.70;;;3.93;;
30571;SDS011;17348;50.948;10.696;2023-11-18T05:10:46;24.60;;;4.57;;
30571;SDS011;17348;50.948;10.696;2023-11-18T05:13:50;7.60;;;4.10;;
30571;SDS011;17348;50.948;10.696;2023-11-18T05:16:52;11.00;;;5.00;;
30571;SDS011;17348;50.948;10.696;2023-11-18T05:19:54;10.03;;;4.87;;
30571;SDS011;17348;50.948;10.696;2023-11-18T05:22:57;9.37;;;4.40;;
30571;SDS011;17348;50.948;10.696;2023-11-18T05:25:59;8.90;;;4.97;;
30571;SDS011;17348;50.948;10.696;2023-11-18T05:29:03;13.27;;;4.87;;
30571;SDS011;17348;50.948;10.696;2023-11-18T05:32:06;10.07;;;4.60;;
30571;SDS011;17348;50.948;10.696;2023-11-18T05:35:09;12.47;;;5.50;;
30571;SDS011;17348;50.948;10.696;2023-11-18T05:38:12;12.30;;;4.83;;
30571;SDS011;17348;50.948;10.696;2023-11-18T05:41:17;10.13;;;5.17;;
30571;SDS011;17348;50.948;10.696;2023-11-18T05:44:29;12.10;;;5.47;;
30571;SDS011;17348;50.948;10.696;2023-11-18T05:47:38;14.85;;;5.30;;
30571;SDS011;17348;50.948;10.696;2023-11-18T05:50:41;16.47;;;5.53;;
30571;SDS011;17348;50.948;10.696;2023-11-18T05:53:43;8.77;;;4.13;;
30571;SDS011;17348;50.948;10.696;2023-11-18T05:56:46;14.27;;;5.23;;
30571;SDS011;17348;50.948;10.696;2023-11-18T05:59:50;12.20;;;5.50;;
30571;SDS011;17348;50.948;10.696;2023-11-18T06:02:52;15.30;;;5.80;;
30571;SDS011;17348;50.948;10.696;2023-11-18T06:05:56;9.80;;;5.10;;
30571;SDS011;17348;50.948;10.696;2023-11-18T06:08:59;13.33;;;5.50;;
30571;SDS011;17348;50.948;10.696;2023-11-18T06:12:05;11.63;;;5.67;;
30571;SDS011;17348;50.948;10.696;2023-11-18T06:15:10;15.57;;;5.47;;
30571;SDS011;17348;50.948;10.696;2023-11-18T06:18:14;11.33;;;5.20;;
30571;SDS011;17348;50.948;10.696;2023-11-18T06:21:17;16.10;;;6.30;;
30571;SDS011;17348;50.948;10.696;2023-11-18T06:24:20;10.13;;;5.13;;
30571;SDS011;17348;50.948;10.696;2023-11-18T06:27:23;19.37;;;5.67;;
30571;SDS011;17348;50.948;10.696;2023-11-18T06:30:26;8.80;;;4.80;;
30571;SDS011;17348;50.948;10.696;2023-11-18T06:33:29;11.27;;;5.63;;
30571;SDS011;17348;50.948;10.696;2023-11-18T06:36:31;8.73;;;4.53;;
30571;SDS011;17348;50.948;10.696;2023-11-18T06:39:33;16.87;;;5.40;;
30571;SDS011;17348;50.948;10.696;2023-11-18T06:42:40;11.23;;;5.10;;
30571;SDS011;17348;50.948;10.696;2023-11-18T06:45:44;10.83;;;5.23;;
30571;SDS011;17348;50.948;10.696;2023-11-18T06:48:47;13.27;;;5.30;;
30571;SDS011;17348;50.948;10.696;2023-11-18T06:51:50;13.00;;;5.13;;
30571;SDS011;17348;50.948;10.696;2023-11-18T06:54:53;11.90;;;5.47;;
30571;SDS011;17348;50.948;10.696;2023-11-18T06:57:55;11.10;;;5.83;;
30571;SDS011;17348;50.948;10.696;2023-11-18T07:00:59;12.17;;;6.00;;
30571;SDS011;17348;50.948;10.696;2023-11-18T07:04:01;14.67;;;6.20;;
30571;SDS011;17348;50.948;10.696;2023-11-18T07:07:04;16.10;;;6.27;;
30571;SDS011;17348;50.948;10.696;2023-11-18T07:10:09;15.10;;;6.43;;
30571;SDS011;17348;50.948;10.696;2023-11-18T07:13:13;17.20;;;6.80;;
30571;SDS011;17348;50.948;10.696;2023-11-18T07:16:18;15.93;;;5.50;;
30571;SDS011;17348;50.948;10.696;2023-11-18T07:19:20;11.63;;;5.00;;
30571;SDS011;17348;50.948;10.696;2023-11-18T07:22:23;14.43;;;5.67;;
30571;SDS011;17348;50.948;10.696;2023-11-18T07:25:27;13.87;;;6.03;;
30571;SDS011;17348;50.948;10.696;2023-11-18T07:28:29;10.37;;;5.43;;
30571;SDS011;17348;50.948;10.696;2023-11-18T07:31:34;15.80;;;5.63;;
30571;SDS011;17348;50.948;10.696;2023-11-18T07:34:36;14.10;;;6.03;;
30571;SDS011;17348;50.948;10.696;2023-11-18T07:37:39;14.53;;;7.27;;
30571;SDS011;17348;50.948;10.696;2023-11-18T07:40:42;14.37;;;6.87;;
30571;SDS011;17348;50.948;10.696;2023-11-18T07:43:46;12.73;;;6.57;;
30571;SDS011;17348;50.948;10.696;2023-11-18T07:46:49;20.93;;;10.37;;
30571;SDS011;17348;50.948;10.696;2023-11-18T07:49:52;20.13;;;9.90;;
30571;SDS011;17348;50.948;10.696;2023-11-18T07:52:54;26.27;;;12.50;;
30571;SDS011;17348;50.948;10.696;2023-11-18T07:55:57;24.17;;;12.20;;
30571;SDS011;17348;50.948;10.696;2023-11-18T07:59:02;15.03;;;6.83;;
30571;SDS011;17348;50.948;10.696;2023-11-18T08:02:07;14.90;;;6.17;;
30571;SDS011;17348;50.948;10.696;2023-11-18T08:05:14;16.60;;;7.50;;
30571;SDS011;17348;50.948;10.696;2023-11-18T08:08:17;12.13;;;6.67;;
30571;SDS011;17348;50.948;10.696;2023-11-18T08:11:19;13.10;;;6.40;;
30571;SDS011;17348;50.948;10.696;2023-11-18T08:14:24;9.03;;;4.93;;
30571;SDS011;17348;50.948;10.696;2023-11-18T08:17:28;7.70;;;4.33;;
30571;SDS011;17348;50.948;10.696;2023-11-18T08:20:31;9.20;;;4.80;;
30571;SDS011;17348;50.948;10.696;2023-11-18T08:23:33;10.13;;;4.23;;
30571;SDS011;17348;50.948;10.696;2023-11-18T08:26:36;12.80;;;4.47;;
30571;SDS011;17348;50.948;10.696;2023-11-18T08:29:38;8.97;;;3.60;;
30571;SDS011;17348;50.948;10.696;2023-11-18T08:32:43;10.50;;;4.00;;
30571;SDS011;17348;50.948;10.696;2023-11-18T08:35:48;7.30;;;4.00;;
30571;SDS011;17348;50.948;10.696;2023-11-18T08:38:51;9.67;;;4.20;;
30571;SDS011;17348;50.948;10.696;2023-11-18T08:41:53;13.77;;;4.73;;
30571;SDS011;17348;50.948;10.696;2023-11-18T08:44:55;11.13;;;5.67;;
30571;SDS011;17348;50.948;10.696;2023-11-18T08:48:01;16.97;;;6.30;;
30571;SDS011;17348;50.948;10.696;2023-11-18T08:51:07;9.83;;;5.67;;
30571;SDS011;17348;50.948;10.696;2023-11-18T08:54:10;12.27;;;5.93;;
30571;SDS011;17348;50.948;10.696;2023-11-18T08:57:22;14.93;;;6.83;;
30571;SDS011;17348;50.948;10.696;2023-11-18T09:00:26;15.67;;;6.37;;
30571;SDS011;17348;50.948;10.696;2023-11-18T09:03:52;13.97;;;6.83;;
30571;SDS011;17348;50.948;10.696;2023-11-18T09:06:55;17.90;;;8.07;;
30571;SDS011;17348;50.948;10.696;2023-11-18T09:10:00;21.47;;;8.83;;
30571;SDS011;17348;50.948;10.696;2023-11-18T09:13:03;15.47;;;7.20;;
30571;SDS011;17348;50.948;10.696;2023-11-18T09:16:06;21.03;;;6.63;;
30571;SDS011;17348;50.948;10.696;2023-11-18T09:19:11;11.73;;;5.97;;
30571;SDS011;17348;50.948;10.696;2023-11-18T09:22:14;10.33;;;5.40;;
30571;SDS011;17348;50.948;10.696;2023-11-18T09:25:17;12.00;;;6.73;;
30571;SDS011;17348;50.948;10.696;2023-11-18T09:28:23;11.27;;;6.20;;
30571;SDS011;17348;50.948;10.696;2023-11-18T09:31:29;14.47;;;6.30;;
30571;SDS011;17348;50.948;10.696;2023-11-18T09:34:35;10.50;;;6.00;;
30571;SDS011;17348;50.948;10.696;2023-11-18T09:37:39;17.37;;;6.30;;
30571;SDS011;17348;50.948;10.696;2023-11-18T09:40:42;10.07;;;5.17;;
30571;SDS011;17348;50.948;10.696;2023-11-18T09:43:46;8.03;;;4.27;;
30571;SDS011;17348;50.948;10.696;2023-11-18T09:46:54;9.10;;;3.60;;
30571;SDS011;17348;50.948;10.696;2023-11-18T09:53:10;9.80;;;4.13;;
30571;SDS011;17348;50.948;10.696;2023-11-18T09:56:15;8.17;;;4.50;;
30571;SDS011;17348;50.948;10.696;2023-11-18T09:59:30;10.23;;;4.43;;
30571;SDS011;17348;50.948;10.696;2023-11-18T10:02:35;7.73;;;4.60;;
30571;SDS011;17348;50.948;10.696;2023-11-18T10:05:42;7.40;;;4.43;;
30571;SDS011;17348;50.948;10.696;2023-11-18T10:08:45;8.57;;;3.90;;
30571;SDS011;17348;50.948;10.696;2023-11-18T10:11:49;10.87;;;4.33;;
30571;SDS011;17348;50.948;10.696;2023-11-18T10:14:55;6.50;;;3.43;;
30571;SDS011;17348;50.948;10.696;2023-11-18T10:17:59;8.30;;;3.80;;
30571;SDS011;17348;50.948;10.696;2023-11-18T10:21:08;8.23;;;3.30;;
30571;SDS011;17348;50.948;10.696;2023-11-18T10:24:12;5.13;;;3.13;;
30571;SDS011;17348;50.948;10.696;2023-11-18T10:27:20;7.43;;;2.57;;
30571;SDS011;17348;50.948;10.696;2023-11-18T10:30:25;5.43;;;2.67;;
30571;SDS011;17348;50.948;10.696;2023-11-18T10:33:28;6.73;;;2.80;;
30571;SDS011;17348;50.948;10.696;2023-11-18T10:36:32;8.70;;;2.73;;
30571;SDS011;17348;50.948;10.696;2023-11-18T10:39:37;4.43;;;2.23;;
30571;SDS011;17348;50.948;10.696;2023-11-18T10:42:39;3.53;;;2.40;;
30571;SDS011;17348;50.948;10.696;2023-11-18T10:45:43;5.60;;;2.67;;
30571;SDS011;17348;50.948;10.696;2023-11-18T10:48:47;3.83;;;2.43;;
30571;SDS011;17348;50.948;10.696;2023-11-18T10:51:52;4.83;;;2.57;;
30571;SDS011;17348;50.948;10.696;2023-11-18T10:54:55;5.70;;;2.63;;
30571;SDS011;17348;50.948;10.696;2023-11-18T10:57:57;5.37;;;2.57;;
30571;SDS011;17348;50.948;10.696;2023-11-18T11:01:00;4.13;;;1.77;;
30571;SDS011;17348;50.948;10.696;2023-11-18T11:04:02;3.67;;;1.83;;
30571;SDS011;17348;50.948;10.696;2023-11-18T11:07:06;2.53;;;1.20;;
30571;SDS011;17348;50.948;10.696;2023-11-18T11:10:09;2.27;;;1.23;;
30571;SDS011;17348;50.948;10.696;2023-11-18T11:13:14;4.07;;;1.20;;
30571;SDS011;17348;50.948;10.696;2023-11-18T11:16:19;6.33;;;1.60;;
30571;SDS011;17348;50.948;10.696;2023-11-18T11:19:25;2.47;;;1.30;;
30571;SDS011;17348;50.948;10.696;2023-11-18T11:22:33;2.83;;;1.40;;
30571;SDS011;17348;50.948;10.696;2023-11-18T11:25:43;2.47;;;1.53;;
30571;SDS011;17348;50.948;10.696;2023-11-18T11:28:59;3.63;;;1.57;;
30571;SDS011;17348;50.948;10.696;2023-11-18T11:32:12;2.07;;;1.23;;
30571;SDS011;17348;50.948;10.696;2023-11-18T11:35:22;4.23;;;1.70;;
30571;SDS011;17348;50.948;10.696;2023-11-18T11:38:29;2.93;;;1.63;;
30571;SDS011;17348;50.948;10.696;2023-11-18T11:41:33;2.77;;;1.60;;
30571;SDS011;17348;50.948;10.696;2023-11-18T11:44:36;4.23;;;1.37;;
30571;SDS011;17348;50.948;10.696;2023-11-18T11:47:42;5.47;;;2.13;;
30571;SDS011;17348;50.948;10.696;2023-11-18T11:50:50;4.80;;;1.80;;
30571;SDS011;17348;50.948;10.696;2023-11-18T11:54:06;7.70;;;2.30;;
30571;SDS011;17348;50.948;10.696;2023-11-18T11:57:16;4.57;;;2.33;;
30571;SDS011;17348;50.948;10.696;2023-11-18T12:00:18;3.97;;;2.03;;
30571;SDS011;17348;50.948;10.696;2023-11-18T12:03:26;2.93;;;1.80;;
30571;SDS011;17348;50.948;10.696;2023-11-18T12:06:39;4.18;;;2.83;;
30571;SDS011;17348;50.948;10.696;2023-11-18T12:09:47;5.07;;;2.73;;
30571;SDS011;17348;50.948;10.696;2023-11-18T12:13:06;15.90;;;3.23;;
30571;SDS011;17348;50.948;10.696;2023-11-18T12:16:10;7.43;;;2.73;;
30571;SDS011;17348;50.948;10.696;2023-11-18T12:19:29;4.57;;;2.60;;
30571;SDS011;17348;50.948;10.696;2023-11-18T12:23:02;4.80;;;2.60;;
30571;SDS011;17348;50.948;10.696;2023-11-18T12:26:37;8.00;;;2.67;;
30571;SDS011;17348;50.948;10.696;2023-11-18T12:29:41;5.27;;;2.87;;
30571;SDS011;17348;50.948;10.696;2023-11-18T12:32:57;6.07;;;3.40;;
30571;SDS011;17348;50.948;10.696;2023-11-18T12:39:44;8.57;;;3.80;;
30571;SDS011;17348;50.948;10.696;2023-11-18T12:43:16;5.03;;;2.73;;
30571;SDS011;17348;50.948;10.696;2023-11-18T12:49:53;6.47;;;3.20;;
30571;SDS011;17348;50.948;10.696;2023-11-18T12:52:56;7.10;;;3.80;;
30571;SDS011;17348;50.948;10.696;2023-11-18T12:55:59;11.53;;;5.17;;
30571;SDS011;17348;50.948;10.696;2023-11-18T12:59:05;8.83;;;4.13;;
30571;SDS011;17348;50.948;10.696;2023-11-18T13:02:07;8.00;;;4.13;;
30571;SDS011;17348;50.948;10.696;2023-11-18T13:05:13;8.07;;;4.27;;
30571;SDS011;17348;50.948;10.696;2023-11-18T13:08:16;4.70;;;3.17;;
30571;SDS011;17348;50.948;10.696;2023-11-18T13:11:20;8.47;;;3.97;;
30571;SDS011;17348;50.948;10.696;2023-11-18T13:14:25;7.17;;;3.83;;
30571;SDS011;17348;50.948;10.696;2023-11-18T13:17:30;5.20;;;3.07;;
30571;SDS011;17348;50.948;10.696;2023-11-18T13:20:32;7.87;;;3.93;;
30571;SDS011;17348;50.948;10.696;2023-11-18T13:23:36;6.90;;;3.67;;
30571;SDS011;17348;50.948;10.696;2023-11-18T13:26:38;11.10;;;4.20;;
30571;SDS011;17348;50.948;10.696;2023-11-18T13:29:43;8.93;;;4.47;;
30571;SDS011;17348;50.948;10.696;2023-11-18T13:32:49;9.90;;;4.70;;
30571;SDS011;17348;50.948;10.696;2023-11-18T13:35:52;7.83;;;4.00;;
30571;SDS011;17348;50.948;10.696;2023-11-18T13:38:55;7.00;;;4.23;;
30571;SDS011;17348;50.948;10.696;2023-11-18T13:41:57;11.20;;;3.80;;
30571;SDS011;17348;50.948;10.696;2023-11-18T13:45:02;9.20;;;4.33;;
30571;SDS011;17348;50.948;10.696;2023-11-18T13:48:11;11.50;;;5.17;;
30571;SDS011;17348;50.948;10.696;2023-11-18T13:51:14;6.73;;;4.30;;
30571;SDS011;17348;50.948;10.696;2023-11-18T13:54:20;7.03;;;2.43;;
30571;SDS011;17348;50.948;10.696;2023-11-18T13:57:23;5.40;;;3.17;;
30571;SDS011;17348;50.948;10.696;2023-11-18T14:00:27;5.83;;;3.67;;
30571;SDS011;17348;50.948;10.696;2023-11-18T14:03:30;8.50;;;3.63;;
30571;SDS011;17348;50.948;10.696;2023-11-18T14:06:32;8.40;;;3.37;;
30571;SDS011;17348;50.948;10.696;2023-11-18T14:09:34;9.90;;;4.43;;
30571;SDS011;17348;50.948;10.696;2023-11-18T14:12:54;8.77;;;3.43;;
30571;SDS011;17348;50.948;10.696;2023-11-18T14:16:02;4.90;;;2.93;;
30571;SDS011;17348;50.948;10.696;2023-11-18T14:19:05;5.33;;;2.53;;
30571;SDS011;17348;50.948;10.696;2023-11-18T14:22:08;5.20;;;2.67;;
30571;SDS011;17348;50.948;10.696;2023-11-18T14:25:10;4.73;;;3.03;;
30571;SDS011;17348;50.948;10.696;2023-11-18T14:28:13;7.23;;;3.83;;
30571;SDS011;17348;50.948;10.696;2023-11-18T14:31:17;5.07;;;3.40;;
30571;SDS011;17348;50.948;10.696;2023-11-18T14:34:19;7.27;;;3.00;;
30571;SDS011;17348;50.948;10.696;2023-11-18T14:37:22;8.60;;;4.00;;
30571;SDS011;17348;50.948;10.696;2023-11-18T14:40:24;6.67;;;3.70;;
30571;SDS011;17348;50.948;10.696;2023-11-18T14:43:26;5.63;;;3.13;;
30571;SDS011;17348;50.948;10.696;2023-11-18T14:46:31;5.67;;;3.30;;
30571;SDS011;17348;50.948;10.696;2023-11-18T14:49:33;5.97;;;3.63;;
30571;SDS011;17348;50.948;10.696;2023-11-18T14:52:36;7.43;;;3.67;;
30571;SDS011;17348;50.948;10.696;2023-11-18T14:55:40;9.60;;;3.83;;
30571;SDS011;17348;50.948;10.696;2023-11-18T14:58:44;8.17;;;3.83;;
30571;SDS011;17348;50.948;10.696;2023-11-18T15:01:51;5.30;;;2.93;;
30571;SDS011;17348;50.948;10.696;2023-11-18T15:04:58;7.77;;;3.17;;
30571;SDS011;17348;50.948;10.696;2023-11-18T15:08:00;8.70;;;4.40;;
30571;SDS011;17348;50.948;10.696;2023-11-18T15:11:03;10.60;;;5.00;;
30571;SDS011;17348;50.948;10.696;2023-11-18T15:14:07;10.17;;;4.50;;
30571;SDS011;17348;50.948;10.696;2023-11-18T15:17:13;8.13;;;4.47;;
30571;SDS011;17348;50.948;10.696;2023-11-18T15:20:16;14.07;;;4.60;;
30571;SDS011;17348;50.948;10.696;2023-11-18T15:23:18;8.00;;;4.27;;
30571;SDS011;17348;50.948;10.696;2023-11-18T15:26:22;7.60;;;3.93;;
30571;SDS011;17348;50.948;10.696;2023-11-18T15:29:24;5.77;;;3.40;;
30571;SDS011;17348;50.948;10.696;2023-11-18T15:32:35;6.80;;;3.67;;
30571;SDS011;17348;50.948;10.696;2023-11-18T15:35:37;9.17;;;3.47;;
30571;SDS011;17348;50.948;10.696;2023-11-18T15:38:41;7.13;;;3.70;;
30571;SDS011;17348;50.948;10.696;2023-11-18T15:41:43;7.37;;;4.47;;
30571;SDS011;17348;50.948;10.696;2023-11-18T15:44:48;9.10;;;4.83;;
30571;SDS011;17348;50.948;10.696;2023-11-18T15:47:51;8.17;;;4.50;;
30571;SDS011;17348;50.948;10.696;2023-11-18T15:50:54;5.87;;;3.57;;
30571;SDS011;17348;50.948;10.696;2023-11-18T15:53:57;8.97;;;4.20;;
30571;SDS011;17348;50.948;10.696;2023-11-18T15:56:59;9.20;;;4.10;;
30571;SDS011;17348;50.948;10.696;2023-11-18T16:00:01;8.80;;;4.53;;
30571;SDS011;17348;50.948;10.696;2023-11-18T16:03:07;7.30;;;4.00;;
30571;SDS011;17348;50.948;10.696;2023-11-18T16:06:09;9.40;;;4.23;;
30571;SDS011;17348;50.948;10.696;2023-11-18T16:09:12;10.63;;;5.40;;
30571;SDS011;17348;50.948;10.696;2023-11-18T16:12:14;9.33;;;4.43;;
30571;SDS011;17348;50.948;10.696;2023-11-18T16:15:16;6.97;;;3.90;;
30571;SDS011;17348;50.948;10.696;2023-11-18T16:18:21;8.07;;;4.70;;
30571;SDS011;17348;50.948;10.696;2023-11-18T16:21:23;8.27;;;4.87;;
30571;SDS011;17348;50.948;10.696;2023-11-18T16:24:25;7.50;;;3.90;;
30571;SDS011;17348;50.948;10.696;2023-11-18T16:27:28;5.50;;;3.63;;
30571;SDS011;17348;50.948;10.696;2023-11-18T16:30:30;6.40;;;3.60;;
30571;SDS011;17348;50.948;10.696;2023-11-18T16:33:34;9.63;;;4.00;;
30571;SDS011;17348;50.948;10.696;2023-11-18T16:36:37;10.23;;;4.17;;
30571;SDS011;17348;50.948;10.696;2023-11-18T16:39:40;11.33;;;4.97;;
30571;SDS011;17348;50.948;10.696;2023-11-18T16:42:42;13.30;;;5.83;;
30571;SDS011;17348;50.948;10.696;2023-11-18T16:45:46;18.53;;;7.80;;
30571;SDS011;17348;50.948;10.696;2023-11-18T16:48:49;8.57;;;4.73;;
30571;SDS011;17348;50.948;10.696;2023-11-18T16:51:51;11.87;;;5.20;;
30571;SDS011;17348;50.948;10.696;2023-11-18T16:54:55;20.63;;;7.97;;
30571;SDS011;17348;50.948;10.696;2023-11-18T16:57:58;17.20;;;7.00;;
30571;SDS011;17348;50.948;10.696;2023-11-18T17:01:00;12.77;;;5.97;;
30571;SDS011;17348;50.948;10.696;2023-11-18T17:04:06;7.53;;;3.30;;
30571;SDS011;17348;50.948;10.696;2023-11-18T17:07:08;8.83;;;4.97;;
30571;SDS011;17348;50.948;10.696;2023-11-18T17:10:11;8.80;;;3.53;;
30571;SDS011;17348;50.948;10.696;2023-11-18T17:13:14;7.17;;;2.93;;
30571;SDS011;17348;50.948;10.696;2023-11-18T17:16:17;10.57;;;5.90;;
30571;SDS011;17348;50.948;10.696;2023-11-18T17:19:27;7.07;;;3.20;;
30571;SDS011;17348;50.948;10.696;2023-11-18T17:22:29;5.30;;;2.23;;
30571;SDS011;17348;50.948;10.696;2023-11-18T17:25:31;4.50;;;2.50;;
30571;SDS011;17348;50.948;10.696;2023-11-18T17:28:34;6.63;;;2.90;;
30571;SDS011;17348;50.948;10.696;2023-11-18T17:31:36;5.37;;;2.60;;
30571;SDS011;17348;50.948;10.696;2023-11-18T17:34:40;3.70;;;2.20;;
30571;SDS011;17348;50.948;10.696;2023-11-18T17:37:44;3.03;;;1.83;;
30571;SDS011;17348;50.948;10.696;2023-11-18T17:40:47;4.23;;;2.10;;
30571;SDS011;17348;50.948;10.696;2023-11-18T17:43:49;7.87;;;2.63;;
30571;SDS011;17348;50.948;10.696;2023-11-18T17:46:52;3.20;;;2.03;;
30571;SDS011;17348;50.948;10.696;2023-11-18T17:49:55;4.23;;;2.27;;
30571;SDS011;17348;50.948;10.696;2023-11-18T17:52:57;4.60;;;2.30;;
30571;SDS011;17348;50.948;10.696;2023-11-18T17:56:03;8.47;;;2.10;;
30571;SDS011;17348;50.948;10.696;2023-11-18T17:59:06;3.57;;;2.17;;
30571;SDS011;17348;50.948;10.696;2023-11-18T18:02:09;4.30;;;2.57;;
30571;SDS011;17348;50.948;10.696;2023-11-18T18:05:14;4.80;;;2.47;;
30571;SDS011;17348;50.948;10.696;2023-11-18T18:08:16;4.57;;;2.80;;
30571;SDS011;17348;50.948;10.696;2023-11-18T18:11:19;8.17;;;4.03;;
30571;SDS011;17348;50.948;10.696;2023-11-18T18:14:21;5.80;;;2.47;;
30571;SDS011;17348;50.948;10.696;2023-11-18T18:17:26;3.93;;;2.20;;
30571;SDS011;17348;50.948;10.696;2023-11-18T18:20:30;4.27;;;2.70;;
30571;SDS011;17348;50.948;10.696;2023-11-18T18:23:32;3.60;;;2.23;;